sensor_id;sensor_type;location;lat;lon;timestamp;P1;durP1;ratioP1;P2;durP2;ratioP2
61038;SDS011;46919;45.816;3.104;2024-01-10T00:01:12;7.38;;;4.90;;
61038;SDS011;46919;45.816;3.104;2024-01-10T00:03:37;7.00;;;4.53;;
61038;SDS011;46919;45.816;3.104;2024-01-10T00:06:02;7.32;;;4.82;;
61038;SDS011;46919;45.816;3.104;2024-01-10T00:08:28;8.25;;;5.00;;
61038;SDS011;46919;45.816;3.104;2024-01-10T00:10:53;8.50;;;5.18;;
61038;SDS011;46919;45.816;3.104;2024-01-10T00:13:19;7.30;;;4.53;;
61038;SDS011;46919;45.816;3.104;2024-01-10T00:15:46;7.47;;;4.47;;
61038;SDS011;46919;45.816;3.104;2024-01-10T00:18:12;8.18;;;5.30;;
61038;SDS011;46919;45.816;3.104;2024-01-10T00:20:38;8.77;;;5.78;;
61038;SDS011;46919;45.816;3.104;2024-01-10T00:23:04;11.07;;;6.43;;
61038;SDS011;46919;45.816;3.104;2024-01-10T00:25:31;7.63;;;5.03;;
61038;SDS011;46919;45.816;3.104;2024-01-10T00:27:56;7.03;;;4.97;;
61038;SDS011;46919;45.816;3.104;2024-01-10T00:30:22;7.78;;;4.93;;
61038;SDS011;46919;45.816;3.104;2024-01-10T00:32:47;7.90;;;5.10;;
61038;SDS011;46919;45.816;3.104;2024-01-10T00:35:13;7.65;;;4.95;;
61038;SDS011;46919;45.816;3.104;2024-01-10T00:37:38;8.43;;;5.60;;
61038;SDS011;46919;45.816;3.104;2024-01-10T00:40:04;7.93;;;5.05;;
61038;SDS011;46919;45.816;3.104;2024-01-10T00:42:30;9.77;;;5.85;;
61038;SDS011;46919;45.816;3.104;2024-01-10T00:44:56;8.75;;;5.28;;
61038;SDS011;46919;45.816;3.104;2024-01-10T00:47:21;10.05;;;5.72;;
61038;SDS011;46919;45.816;3.104;2024-01-10T00:49:47;8.45;;;5.22;;
61038;SDS011;46919;45.816;3.104;2024-01-10T00:52:12;7.72;;;4.70;;
61038;SDS011;46919;45.816;3.104;2024-01-10T00:54:37;7.30;;;4.97;;
61038;SDS011;46919;45.816;3.104;2024-01-10T00:57:03;8.30;;;5.22;;
61038;SDS011;46919;45.816;3.104;2024-01-10T00:59:28;7.45;;;4.68;;
61038;SDS011;46919;45.816;3.104;2024-01-10T01:01:54;7.28;;;4.70;;
61038;SDS011;46919;45.816;3.104;2024-01-10T01:04:19;7.68;;;4.80;;
61038;SDS011;46919;45.816;3.104;2024-01-10T01:06:45;8.30;;;4.88;;
61038;SDS011;46919;45.816;3.104;2024-01-10T01:09:11;8.40;;;5.00;;
61038;SDS011;46919;45.816;3.104;2024-01-10T01:11:38;7.45;;;5.05;;
61038;SDS011;46919;45.816;3.104;2024-01-10T01:14:03;8.48;;;4.60;;
61038;SDS011;46919;45.816;3.104;2024-01-10T01:16:29;7.25;;;5.15;;
61038;SDS011;46919;45.816;3.104;2024-01-10T01:18:54;7.60;;;5.10;;
61038;SDS011;46919;45.816;3.104;2024-01-10T01:21:20;7.85;;;5.53;;
61038;SDS011;46919;45.816;3.104;2024-01-10T01:23:46;7.90;;;4.78;;
61038;SDS011;46919;45.816;3.104;2024-01-10T01:26:11;7.63;;;5.10;;
61038;SDS011;46919;45.816;3.104;2024-01-10T01:28:38;8.75;;;4.63;;
61038;SDS011;46919;45.816;3.104;2024-01-10T01:31:04;7.78;;;5.28;;
61038;SDS011;46919;45.816;3.104;2024-01-10T01:33:29;7.85;;;4.65;;
61038;SDS011;46919;45.816;3.104;2024-01-10T01:35:55;8.40;;;4.90;;
61038;SDS011;46919;45.816;3.104;2024-01-10T01:38:20;8.82;;;4.97;;
61038;SDS011;46919;45.816;3.104;2024-01-10T01:40:46;8.85;;;5.22;;
61038;SDS011;46919;45.816;3.104;2024-01-10T01:43:21;9.52;;;5.40;;
61038;SDS011;46919;45.816;3.104;2024-01-10T01:45:51;7.82;;;5.00;;
61038;SDS011;46919;45.816;3.104;2024-01-10T01:48:18;7.78;;;5.30;;
61038;SDS011;46919;45.816;3.104;2024-01-10T01:50:45;8.05;;;4.90;;
61038;SDS011;46919;45.816;3.104;2024-01-10T01:53:13;8.05;;;5.20;;
61038;SDS011;46919;45.816;3.104;2024-01-10T01:55:39;7.68;;;4.70;;
61038;SDS011;46919;45.816;3.104;2024-01-10T01:58:05;8.10;;;4.97;;
61038;SDS011;46919;45.816;3.104;2024-01-10T02:00:31;10.05;;;5.65;;
61038;SDS011;46919;45.816;3.104;2024-01-10T02:02:57;9.20;;;5.32;;
61038;SDS011;46919;45.816;3.104;2024-01-10T02:05:24;8.98;;;5.10;;
61038;SDS011;46919;45.816;3.104;2024-01-10T02:07:50;8.90;;;5.57;;
61038;SDS011;46919;45.816;3.104;2024-01-10T02:10:15;9.43;;;5.55;;
61038;SDS011;46919;45.816;3.104;2024-01-10T02:12:41;9.88;;;6.05;;
61038;SDS011;46919;45.816;3.104;2024-01-10T02:15:06;10.05;;;5.88;;
61038;SDS011;46919;45.816;3.104;2024-01-10T02:17:32;10.57;;;6.20;;
61038;SDS011;46919;45.816;3.104;2024-01-10T02:20:07;11.00;;;6.38;;
61038;SDS011;46919;45.816;3.104;2024-01-10T02:22:35;11.07;;;6.15;;
61038;SDS011;46919;45.816;3.104;2024-01-10T02:25:01;10.60;;;6.18;;
61038;SDS011;46919;45.816;3.104;2024-01-10T02:27:27;11.25;;;5.38;;
61038;SDS011;46919;45.816;3.104;2024-01-10T02:29:53;9.80;;;5.90;;
61038;SDS011;46919;45.816;3.104;2024-01-10T02:32:20;10.20;;;5.80;;
61038;SDS011;46919;45.816;3.104;2024-01-10T02:34:46;9.82;;;5.72;;
61038;SDS011;46919;45.816;3.104;2024-01-10T02:37:11;10.27;;;5.85;;
61038;SDS011;46919;45.816;3.104;2024-01-10T02:39:36;8.60;;;5.45;;
61038;SDS011;46919;45.816;3.104;2024-01-10T02:42:02;9.27;;;5.90;;
61038;SDS011;46919;45.816;3.104;2024-01-10T02:44:27;11.25;;;5.85;;
61038;SDS011;46919;45.816;3.104;2024-01-10T02:46:53;9.20;;;5.28;;
61038;SDS011;46919;45.816;3.104;2024-01-10T02:49:18;11.07;;;5.60;;
61038;SDS011;46919;45.816;3.104;2024-01-10T02:51:44;9.98;;;5.70;;
61038;SDS011;46919;45.816;3.104;2024-01-10T02:54:09;9.68;;;5.82;;
61038;SDS011;46919;45.816;3.104;2024-01-10T02:56:35;11.75;;;6.55;;
61038;SDS011;46919;45.816;3.104;2024-01-10T02:59:00;14.88;;;7.18;;
61038;SDS011;46919;45.816;3.104;2024-01-10T03:01:26;12.63;;;6.43;;
61038;SDS011;46919;45.816;3.104;2024-01-10T03:03:51;15.05;;;7.93;;
61038;SDS011;46919;45.816;3.104;2024-01-10T03:06:16;12.48;;;6.82;;
61038;SDS011;46919;45.816;3.104;2024-01-10T03:08:42;14.02;;;7.07;;
61038;SDS011;46919;45.816;3.104;2024-01-10T03:11:07;11.18;;;6.32;;
61038;SDS011;46919;45.816;3.104;2024-01-10T03:13:32;12.57;;;5.97;;
61038;SDS011;46919;45.816;3.104;2024-01-10T03:15:58;11.65;;;6.53;;
61038;SDS011;46919;45.816;3.104;2024-01-10T03:18:24;10.13;;;6.13;;
61038;SDS011;46919;45.816;3.104;2024-01-10T03:20:49;12.05;;;6.47;;
61038;SDS011;46919;45.816;3.104;2024-01-10T03:23:15;11.25;;;5.97;;
61038;SDS011;46919;45.816;3.104;2024-01-10T03:25:40;14.07;;;6.50;;
61038;SDS011;46919;45.816;3.104;2024-01-10T03:28:05;10.38;;;5.35;;
61038;SDS011;46919;45.816;3.104;2024-01-10T03:30:31;10.88;;;5.50;;
61038;SDS011;46919;45.816;3.104;2024-01-10T03:32:56;11.93;;;6.75;;
61038;SDS011;46919;45.816;3.104;2024-01-10T03:35:21;12.88;;;6.65;;
61038;SDS011;46919;45.816;3.104;2024-01-10T03:37:47;12.02;;;6.60;;
61038;SDS011;46919;45.816;3.104;2024-01-10T03:40:12;10.68;;;5.93;;
61038;SDS011;46919;45.816;3.104;2024-01-10T03:42:38;11.38;;;6.53;;
61038;SDS011;46919;45.816;3.104;2024-01-10T03:45:04;12.68;;;6.78;;
61038;SDS011;46919;45.816;3.104;2024-01-10T03:47:30;12.80;;;6.88;;
61038;SDS011;46919;45.816;3.104;2024-01-10T03:49:55;12.27;;;7.53;;
61038;SDS011;46919;45.816;3.104;2024-01-10T03:52:21;11.88;;;6.20;;
61038;SDS011;46919;45.816;3.104;2024-01-10T03:54:46;12.35;;;6.05;;
61038;SDS011;46919;45.816;3.104;2024-01-10T03:57:12;12.07;;;6.60;;
61038;SDS011;46919;45.816;3.104;2024-01-10T03:59:37;13.70;;;6.78;;
61038;SDS011;46919;45.816;3.104;2024-01-10T04:02:02;12.68;;;6.40;;
61038;SDS011;46919;45.816;3.104;2024-01-10T04:04:28;11.35;;;6.35;;
61038;SDS011;46919;45.816;3.104;2024-01-10T04:06:54;12.40;;;6.82;;
61038;SDS011;46919;45.816;3.104;2024-01-10T04:09:19;13.55;;;6.40;;
61038;SDS011;46919;45.816;3.104;2024-01-10T04:11:45;10.25;;;6.57;;
61038;SDS011;46919;45.816;3.104;2024-01-10T04:14:10;11.32;;;7.07;;
61038;SDS011;46919;45.816;3.104;2024-01-10T04:16:36;14.57;;;6.20;;
61038;SDS011;46919;45.816;3.104;2024-01-10T04:19:01;11.90;;;6.78;;
61038;SDS011;46919;45.816;3.104;2024-01-10T04:21:26;10.98;;;5.93;;
61038;SDS011;46919;45.816;3.104;2024-01-10T04:23:52;12.18;;;6.35;;
61038;SDS011;46919;45.816;3.104;2024-01-10T04:26:17;11.88;;;6.05;;
61038;SDS011;46919;45.816;3.104;2024-01-10T04:28:43;11.68;;;6.38;;
61038;SDS011;46919;45.816;3.104;2024-01-10T04:31:08;12.30;;;6.30;;
61038;SDS011;46919;45.816;3.104;2024-01-10T04:33:34;10.27;;;5.50;;
61038;SDS011;46919;45.816;3.104;2024-01-10T04:35:59;10.48;;;5.47;;
61038;SDS011;46919;45.816;3.104;2024-01-10T04:38:24;11.10;;;6.10;;
61038;SDS011;46919;45.816;3.104;2024-01-10T04:40:51;11.82;;;6.15;;
61038;SDS011;46919;45.816;3.104;2024-01-10T04:43:17;12.27;;;6.68;;
61038;SDS011;46919;45.816;3.104;2024-01-10T04:45:42;17.05;;;7.53;;
61038;SDS011;46919;45.816;3.104;2024-01-10T04:48:08;12.43;;;7.00;;
61038;SDS011;46919;45.816;3.104;2024-01-10T04:50:34;12.15;;;6.50;;
61038;SDS011;46919;45.816;3.104;2024-01-10T04:53:00;14.20;;;7.35;;
61038;SDS011;46919;45.816;3.104;2024-01-10T04:55:25;11.63;;;7.00;;
61038;SDS011;46919;45.816;3.104;2024-01-10T04:57:51;13.20;;;6.47;;
61038;SDS011;46919;45.816;3.104;2024-01-10T05:00:16;14.63;;;7.60;;
61038;SDS011;46919;45.816;3.104;2024-01-10T05:02:41;13.52;;;6.95;;
61038;SDS011;46919;45.816;3.104;2024-01-10T05:05:07;14.90;;;7.28;;
61038;SDS011;46919;45.816;3.104;2024-01-10T05:07:32;12.27;;;6.57;;
61038;SDS011;46919;45.816;3.104;2024-01-10T05:09:58;13.40;;;7.35;;
61038;SDS011;46919;45.816;3.104;2024-01-10T05:12:23;15.05;;;8.32;;
61038;SDS011;46919;45.816;3.104;2024-01-10T05:14:49;14.35;;;7.75;;
61038;SDS011;46919;45.816;3.104;2024-01-10T05:17:14;14.77;;;8.25;;
61038;SDS011;46919;45.816;3.104;2024-01-10T05:19:39;15.60;;;7.53;;
61038;SDS011;46919;45.816;3.104;2024-01-10T05:22:05;12.68;;;7.05;;
61038;SDS011;46919;45.816;3.104;2024-01-10T05:24:31;15.27;;;7.50;;
61038;SDS011;46919;45.816;3.104;2024-01-10T05:26:56;12.48;;;7.35;;
61038;SDS011;46919;45.816;3.104;2024-01-10T05:29:22;13.00;;;7.53;;
61038;SDS011;46919;45.816;3.104;2024-01-10T05:31:49;12.57;;;7.30;;
61038;SDS011;46919;45.816;3.104;2024-01-10T05:34:14;15.00;;;7.53;;
61038;SDS011;46919;45.816;3.104;2024-01-10T05:36:40;14.18;;;7.10;;
61038;SDS011;46919;45.816;3.104;2024-01-10T05:39:05;14.25;;;7.60;;
61038;SDS011;46919;45.816;3.104;2024-01-10T05:41:30;14.90;;;7.80;;
61038;SDS011;46919;45.816;3.104;2024-01-10T05:43:56;14.02;;;8.07;;
61038;SDS011;46919;45.816;3.104;2024-01-10T05:46:21;14.38;;;7.55;;
61038;SDS011;46919;45.816;3.104;2024-01-10T05:48:47;14.75;;;8.00;;
61038;SDS011;46919;45.816;3.104;2024-01-10T05:51:13;15.82;;;7.60;;
61038;SDS011;46919;45.816;3.104;2024-01-10T05:53:38;16.45;;;8.63;;
61038;SDS011;46919;45.816;3.104;2024-01-10T05:56:05;22.73;;;9.63;;
61038;SDS011;46919;45.816;3.104;2024-01-10T05:58:32;18.50;;;9.30;;
61038;SDS011;46919;45.816;3.104;2024-01-10T06:00:57;16.90;;;8.45;;
61038;SDS011;46919;45.816;3.104;2024-01-10T06:03:22;17.00;;;7.72;;
61038;SDS011;46919;45.816;3.104;2024-01-10T06:05:49;15.77;;;8.43;;
61038;SDS011;46919;45.816;3.104;2024-01-10T06:08:15;17.65;;;9.57;;
61038;SDS011;46919;45.816;3.104;2024-01-10T06:10:40;19.73;;;10.38;;
61038;SDS011;46919;45.816;3.104;2024-01-10T06:13:06;19.92;;;10.70;;
61038;SDS011;46919;45.816;3.104;2024-01-10T06:15:31;17.40;;;9.38;;
61038;SDS011;46919;45.816;3.104;2024-01-10T06:17:57;15.10;;;8.38;;
61038;SDS011;46919;45.816;3.104;2024-01-10T06:20:23;15.95;;;9.52;;
61038;SDS011;46919;45.816;3.104;2024-01-10T06:22:48;15.43;;;7.97;;
61038;SDS011;46919;45.816;3.104;2024-01-10T06:25:14;12.27;;;7.28;;
61038;SDS011;46919;45.816;3.104;2024-01-10T06:27:40;13.90;;;7.65;;
61038;SDS011;46919;45.816;3.104;2024-01-10T06:30:06;12.02;;;7.00;;
61038;SDS011;46919;45.816;3.104;2024-01-10T06:32:32;12.68;;;7.30;;
61038;SDS011;46919;45.816;3.104;2024-01-10T06:34:58;15.70;;;8.55;;
61038;SDS011;46919;45.816;3.104;2024-01-10T06:37:25;17.83;;;8.68;;
61038;SDS011;46919;45.816;3.104;2024-01-10T06:39:50;16.38;;;8.27;;
61038;SDS011;46919;45.816;3.104;2024-01-10T06:42:16;16.77;;;8.15;;
61038;SDS011;46919;45.816;3.104;2024-01-10T06:44:41;15.43;;;8.35;;
61038;SDS011;46919;45.816;3.104;2024-01-10T06:47:06;18.55;;;7.85;;
61038;SDS011;46919;45.816;3.104;2024-01-10T06:49:32;14.40;;;8.32;;
61038;SDS011;46919;45.816;3.104;2024-01-10T06:51:58;15.23;;;8.75;;
61038;SDS011;46919;45.816;3.104;2024-01-10T06:54:25;18.15;;;10.43;;
61038;SDS011;46919;45.816;3.104;2024-01-10T06:56:50;24.08;;;11.13;;
61038;SDS011;46919;45.816;3.104;2024-01-10T06:59:16;25.17;;;11.82;;
61038;SDS011;46919;45.816;3.104;2024-01-10T07:01:41;48.83;;;21.90;;
61038;SDS011;46919;45.816;3.104;2024-01-10T07:04:07;51.38;;;22.13;;
61038;SDS011;46919;45.816;3.104;2024-01-10T07:06:32;49.88;;;21.50;;
61038;SDS011;46919;45.816;3.104;2024-01-10T07:08:57;30.77;;;12.98;;
61038;SDS011;46919;45.816;3.104;2024-01-10T07:11:23;24.58;;;11.70;;
61038;SDS011;46919;45.816;3.104;2024-01-10T07:13:51;20.17;;;10.07;;
61038;SDS011;46919;45.816;3.104;2024-01-10T07:16:17;17.15;;;9.40;;
61038;SDS011;46919;45.816;3.104;2024-01-10T07:18:43;19.05;;;10.13;;
61038;SDS011;46919;45.816;3.104;2024-01-10T07:21:10;15.93;;;8.88;;
61038;SDS011;46919;45.816;3.104;2024-01-10T07:23:36;16.50;;;8.52;;
61038;SDS011;46919;45.816;3.104;2024-01-10T07:26:05;16.92;;;8.82;;
61038;SDS011;46919;45.816;3.104;2024-01-10T07:28:30;14.70;;;7.43;;
61038;SDS011;46919;45.816;3.104;2024-01-10T07:30:57;15.10;;;7.25;;
61038;SDS011;46919;45.816;3.104;2024-01-10T07:33:22;13.88;;;7.85;;
61038;SDS011;46919;45.816;3.104;2024-01-10T07:35:48;14.82;;;7.35;;
61038;SDS011;46919;45.816;3.104;2024-01-10T07:38:13;15.48;;;8.88;;
61038;SDS011;46919;45.816;3.104;2024-01-10T07:40:39;13.93;;;8.63;;
61038;SDS011;46919;45.816;3.104;2024-01-10T07:43:04;14.80;;;7.93;;
61038;SDS011;46919;45.816;3.104;2024-01-10T07:45:29;15.70;;;8.40;;
61038;SDS011;46919;45.816;3.104;2024-01-10T07:47:55;15.15;;;8.32;;
61038;SDS011;46919;45.816;3.104;2024-01-10T07:50:20;15.93;;;8.48;;
61038;SDS011;46919;45.816;3.104;2024-01-10T07:52:46;18.60;;;8.23;;
61038;SDS011;46919;45.816;3.104;2024-01-10T07:55:11;15.75;;;7.88;;
61038;SDS011;46919;45.816;3.104;2024-01-10T07:57:37;19.05;;;8.57;;
61038;SDS011;46919;45.816;3.104;2024-01-10T08:00:06;16.95;;;8.82;;
61038;SDS011;46919;45.816;3.104;2024-01-10T08:02:35;18.67;;;8.95;;
61038;SDS011;46919;45.816;3.104;2024-01-10T08:05:04;16.10;;;8.50;;
61038;SDS011;46919;45.816;3.104;2024-01-10T08:07:35;15.13;;;8.10;;
61038;SDS011;46919;45.816;3.104;2024-01-10T08:10:08;16.88;;;8.90;;
61038;SDS011;46919;45.816;3.104;2024-01-10T08:12:34;17.50;;;8.98;;
61038;SDS011;46919;45.816;3.104;2024-01-10T08:15:00;16.80;;;8.93;;
61038;SDS011;46919;45.816;3.104;2024-01-10T08:17:26;26.33;;;14.55;;
61038;SDS011;46919;45.816;3.104;2024-01-10T08:19:52;23.27;;;13.95;;
61038;SDS011;46919;45.816;3.104;2024-01-10T08:22:17;21.65;;;10.88;;
61038;SDS011;46919;45.816;3.104;2024-01-10T08:24:44;15.90;;;9.32;;
61038;SDS011;46919;45.816;3.104;2024-01-10T08:27:11;18.38;;;8.57;;
61038;SDS011;46919;45.816;3.104;2024-01-10T08:29:36;17.02;;;9.13;;
61038;SDS011;46919;45.816;3.104;2024-01-10T08:32:02;17.92;;;9.65;;
61038;SDS011;46919;45.816;3.104;2024-01-10T08:34:29;15.30;;;9.02;;
61038;SDS011;46919;45.816;3.104;2024-01-10T08:36:54;16.67;;;8.57;;
61038;SDS011;46919;45.816;3.104;2024-01-10T08:39:19;17.05;;;9.15;;
61038;SDS011;46919;45.816;3.104;2024-01-10T08:41:47;19.27;;;9.57;;
61038;SDS011;46919;45.816;3.104;2024-01-10T08:44:12;18.00;;;9.05;;
61038;SDS011;46919;45.816;3.104;2024-01-10T08:46:38;17.83;;;9.02;;
61038;SDS011;46919;45.816;3.104;2024-01-10T08:49:04;18.55;;;8.80;;
61038;SDS011;46919;45.816;3.104;2024-01-10T08:51:29;14.68;;;8.57;;
61038;SDS011;46919;45.816;3.104;2024-01-10T08:53:55;14.88;;;8.30;;
61038;SDS011;46919;45.816;3.104;2024-01-10T08:56:21;15.30;;;8.52;;
61038;SDS011;46919;45.816;3.104;2024-01-10T08:58:47;16.58;;;9.10;;
61038;SDS011;46919;45.816;3.104;2024-01-10T09:01:13;16.60;;;9.23;;
61038;SDS011;46919;45.816;3.104;2024-01-10T09:03:38;17.17;;;10.13;;
61038;SDS011;46919;45.816;3.104;2024-01-10T09:06:04;17.33;;;8.60;;
61038;SDS011;46919;45.816;3.104;2024-01-10T09:08:30;18.38;;;9.77;;
61038;SDS011;46919;45.816;3.104;2024-01-10T09:10:56;17.33;;;10.00;;
61038;SDS011;46919;45.816;3.104;2024-01-10T09:13:21;24.58;;;14.57;;
61038;SDS011;46919;45.816;3.104;2024-01-10T09:15:46;16.00;;;9.10;;
61038;SDS011;46919;45.816;3.104;2024-01-10T09:18:12;15.27;;;8.88;;
61038;SDS011;46919;45.816;3.104;2024-01-10T09:20:37;18.05;;;9.40;;
61038;SDS011;46919;45.816;3.104;2024-01-10T09:23:03;19.02;;;9.50;;
61038;SDS011;46919;45.816;3.104;2024-01-10T09:25:29;19.30;;;10.68;;
61038;SDS011;46919;45.816;3.104;2024-01-10T09:27:54;21.02;;;11.00;;
61038;SDS011;46919;45.816;3.104;2024-01-10T09:30:20;23.08;;;10.95;;
61038;SDS011;46919;45.816;3.104;2024-01-10T09:32:46;22.02;;;10.38;;
61038;SDS011;46919;45.816;3.104;2024-01-10T09:35:12;24.98;;;12.43;;
61038;SDS011;46919;45.816;3.104;2024-01-10T09:37:38;20.95;;;10.60;;
61038;SDS011;46919;45.816;3.104;2024-01-10T09:40:04;19.25;;;10.45;;
61038;SDS011;46919;45.816;3.104;2024-01-10T09:42:33;18.40;;;10.55;;
61038;SDS011;46919;45.816;3.104;2024-01-10T09:45:00;18.08;;;10.35;;
61038;SDS011;46919;45.816;3.104;2024-01-10T09:47:28;19.10;;;10.32;;
61038;SDS011;46919;45.816;3.104;2024-01-10T09:49:56;17.10;;;9.63;;
61038;SDS011;46919;45.816;3.104;2024-01-10T09:52:24;21.58;;;11.55;;
61038;SDS011;46919;45.816;3.104;2024-01-10T09:54:54;21.45;;;11.15;;
61038;SDS011;46919;45.816;3.104;2024-01-10T09:57:22;20.40;;;10.10;;
61038;SDS011;46919;45.816;3.104;2024-01-10T09:59:49;18.02;;;9.45;;
61038;SDS011;46919;45.816;3.104;2024-01-10T10:02:16;18.02;;;10.38;;
61038;SDS011;46919;45.816;3.104;2024-01-10T10:04:49;19.10;;;10.68;;
61038;SDS011;46919;45.816;3.104;2024-01-10T10:07:51;23.55;;;12.80;;
61038;SDS011;46919;45.816;3.104;2024-01-10T10:10:18;21.92;;;12.27;;
61038;SDS011;46919;45.816;3.104;2024-01-10T10:12:45;20.90;;;11.45;;
61038;SDS011;46919;45.816;3.104;2024-01-10T10:15:12;19.92;;;11.15;;
61038;SDS011;46919;45.816;3.104;2024-01-10T10:17:39;19.52;;;11.63;;
61038;SDS011;46919;45.816;3.104;2024-01-10T10:20:11;18.95;;;10.70;;
61038;SDS011;46919;45.816;3.104;2024-01-10T10:22:38;26.05;;;12.60;;
61038;SDS011;46919;45.816;3.104;2024-01-10T10:25:04;22.38;;;11.90;;
61038;SDS011;46919;45.816;3.104;2024-01-10T10:27:30;20.42;;;11.65;;
61038;SDS011;46919;45.816;3.104;2024-01-10T10:29:55;20.15;;;11.60;;
61038;SDS011;46919;45.816;3.104;2024-01-10T10:32:21;21.08;;;11.90;;
61038;SDS011;46919;45.816;3.104;2024-01-10T10:34:46;20.15;;;11.20;;
61038;SDS011;46919;45.816;3.104;2024-01-10T10:37:12;27.45;;;15.35;;
61038;SDS011;46919;45.816;3.104;2024-01-10T10:39:37;21.25;;;12.00;;
61038;SDS011;46919;45.816;3.104;2024-01-10T10:42:03;20.25;;;11.18;;
61038;SDS011;46919;45.816;3.104;2024-01-10T10:44:29;20.02;;;11.35;;
61038;SDS011;46919;45.816;3.104;2024-01-10T10:47:03;22.92;;;10.52;;
61038;SDS011;46919;45.816;3.104;2024-01-10T10:49:31;28.75;;;17.33;;
61038;SDS011;46919;45.816;3.104;2024-01-10T10:51:57;21.13;;;11.77;;
61038;SDS011;46919;45.816;3.104;2024-01-10T10:54:28;22.00;;;12.63;;
61038;SDS011;46919;45.816;3.104;2024-01-10T10:56:57;20.08;;;10.57;;
61038;SDS011;46919;45.816;3.104;2024-01-10T10:59:25;16.52;;;9.98;;
61038;SDS011;46919;45.816;3.104;2024-01-10T11:01:53;18.08;;;10.48;;
61038;SDS011;46919;45.816;3.104;2024-01-10T11:04:19;16.38;;;9.75;;
61038;SDS011;46919;45.816;3.104;2024-01-10T11:06:46;15.20;;;9.38;;
61038;SDS011;46919;45.816;3.104;2024-01-10T11:09:11;18.52;;;10.20;;
61038;SDS011;46919;45.816;3.104;2024-01-10T11:12:05;18.50;;;9.68;;
61038;SDS011;46919;45.816;3.104;2024-01-10T11:15:14;21.90;;;9.68;;
61038;SDS011;46919;45.816;3.104;2024-01-10T11:25:15;18.40;;;9.60;;
61038;SDS011;46919;45.816;3.104;2024-01-10T11:27:43;19.08;;;10.20;;
61038;SDS011;46919;45.816;3.104;2024-01-10T11:30:08;16.73;;;9.60;;
61038;SDS011;46919;45.816;3.104;2024-01-10T11:32:36;16.70;;;9.68;;
61038;SDS011;46919;45.816;3.104;2024-01-10T11:35:05;17.52;;;10.30;;
61038;SDS011;46919;45.816;3.104;2024-01-10T11:37:44;16.70;;;9.02;;
61038;SDS011;46919;45.816;3.104;2024-01-10T11:40:11;14.77;;;8.95;;
61038;SDS011;46919;45.816;3.104;2024-01-10T11:42:44;22.27;;;10.70;;
61038;SDS011;46919;45.816;3.104;2024-01-10T11:45:44;17.48;;;9.65;;
61038;SDS011;46919;45.816;3.104;2024-01-10T11:48:02;17.65;;;9.57;;
61038;SDS011;46919;45.816;3.104;2024-01-10T11:50:28;17.80;;;10.25;;
61038;SDS011;46919;45.816;3.104;2024-01-10T11:52:56;16.75;;;9.50;;
61038;SDS011;46919;45.816;3.104;2024-01-10T11:58:11;16.08;;;9.75;;
61038;SDS011;46919;45.816;3.104;2024-01-10T12:00:37;17.42;;;9.98;;
61038;SDS011;46919;45.816;3.104;2024-01-10T12:03:03;17.40;;;10.27;;
61038;SDS011;46919;45.816;3.104;2024-01-10T12:05:28;19.08;;;10.43;;
61038;SDS011;46919;45.816;3.104;2024-01-10T12:07:54;19.88;;;10.50;;
61038;SDS011;46919;45.816;3.104;2024-01-10T12:10:20;15.98;;;9.88;;
61038;SDS011;46919;45.816;3.104;2024-01-10T12:12:46;20.23;;;11.45;;
61038;SDS011;46919;45.816;3.104;2024-01-10T12:15:11;17.08;;;10.13;;
61038;SDS011;46919;45.816;3.104;2024-01-10T12:17:37;18.52;;;10.25;;
61038;SDS011;46919;45.816;3.104;2024-01-10T12:20:02;17.42;;;9.93;;
61038;SDS011;46919;45.816;3.104;2024-01-10T12:22:28;21.30;;;12.13;;
61038;SDS011;46919;45.816;3.104;2024-01-10T12:24:56;16.85;;;10.98;;
61038;SDS011;46919;45.816;3.104;2024-01-10T12:29:55;19.70;;;10.73;;
61038;SDS011;46919;45.816;3.104;2024-01-10T12:32:21;17.15;;;10.43;;
61038;SDS011;46919;45.816;3.104;2024-01-10T12:34:47;19.05;;;10.98;;
61038;SDS011;46919;45.816;3.104;2024-01-10T12:37:13;17.88;;;10.70;;
61038;SDS011;46919;45.816;3.104;2024-01-10T12:39:38;17.83;;;10.27;;
61038;SDS011;46919;45.816;3.104;2024-01-10T12:42:04;15.40;;;10.00;;
61038;SDS011;46919;45.816;3.104;2024-01-10T12:44:30;16.77;;;9.93;;
61038;SDS011;46919;45.816;3.104;2024-01-10T12:46:55;15.95;;;9.50;;
61038;SDS011;46919;45.816;3.104;2024-01-10T12:49:22;16.08;;;9.40;;
61038;SDS011;46919;45.816;3.104;2024-01-10T12:51:47;14.68;;;9.15;;
61038;SDS011;46919;45.816;3.104;2024-01-10T12:54:13;18.95;;;10.50;;
61038;SDS011;46919;45.816;3.104;2024-01-10T12:56:39;16.90;;;9.73;;
61038;SDS011;46919;45.816;3.104;2024-01-10T12:59:04;16.27;;;9.70;;
61038;SDS011;46919;45.816;3.104;2024-01-10T13:01:30;15.70;;;9.23;;
61038;SDS011;46919;45.816;3.104;2024-01-10T13:03:55;14.60;;;8.93;;
61038;SDS011;46919;45.816;3.104;2024-01-10T13:06:21;14.63;;;9.00;;
61038;SDS011;46919;45.816;3.104;2024-01-10T13:08:48;18.08;;;9.70;;
61038;SDS011;46919;45.816;3.104;2024-01-10T13:11:13;17.92;;;9.98;;
61038;SDS011;46919;45.816;3.104;2024-01-10T13:13:40;21.63;;;10.82;;
61038;SDS011;46919;45.816;3.104;2024-01-10T13:16:08;15.05;;;9.07;;
61038;SDS011;46919;45.816;3.104;2024-01-10T13:18:35;16.65;;;10.13;;
61038;SDS011;46919;45.816;3.104;2024-01-10T13:21:02;19.80;;;10.20;;
61038;SDS011;46919;45.816;3.104;2024-01-10T13:23:28;18.73;;;10.07;;
61038;SDS011;46919;45.816;3.104;2024-01-10T13:25:53;19.60;;;9.82;;
61038;SDS011;46919;45.816;3.104;2024-01-10T13:28:18;18.95;;;10.20;;
61038;SDS011;46919;45.816;3.104;2024-01-10T13:30:44;22.75;;;10.85;;
61038;SDS011;46919;45.816;3.104;2024-01-10T13:33:10;18.05;;;10.02;;
61038;SDS011;46919;45.816;3.104;2024-01-10T13:35:36;16.23;;;9.60;;
61038;SDS011;46919;45.816;3.104;2024-01-10T13:38:02;17.48;;;9.85;;
61038;SDS011;46919;45.816;3.104;2024-01-10T13:40:27;20.90;;;12.40;;
61038;SDS011;46919;45.816;3.104;2024-01-10T13:42:53;20.77;;;10.95;;
61038;SDS011;46919;45.816;3.104;2024-01-10T13:45:18;21.63;;;11.25;;
61038;SDS011;46919;45.816;3.104;2024-01-10T13:47:45;19.50;;;10.93;;
61038;SDS011;46919;45.816;3.104;2024-01-10T13:50:11;18.73;;;11.88;;
61038;SDS011;46919;45.816;3.104;2024-01-10T13:52:36;19.23;;;11.85;;
61038;SDS011;46919;45.816;3.104;2024-01-10T13:55:02;23.00;;;12.13;;
61038;SDS011;46919;45.816;3.104;2024-01-10T13:57:31;23.65;;;12.35;;
61038;SDS011;46919;45.816;3.104;2024-01-10T14:00:00;24.10;;;13.20;;
61038;SDS011;46919;45.816;3.104;2024-01-10T14:02:26;20.92;;;12.27;;
61038;SDS011;46919;45.816;3.104;2024-01-10T14:04:52;24.05;;;11.50;;
61038;SDS011;46919;45.816;3.104;2024-01-10T14:07:22;23.20;;;11.82;;
61038;SDS011;46919;45.816;3.104;2024-01-10T14:09:48;24.05;;;12.02;;
61038;SDS011;46919;45.816;3.104;2024-01-10T14:12:14;29.70;;;12.55;;
61038;SDS011;46919;45.816;3.104;2024-01-10T14:14:39;19.10;;;10.95;;
61038;SDS011;46919;45.816;3.104;2024-01-10T14:17:05;18.70;;;11.57;;
61038;SDS011;46919;45.816;3.104;2024-01-10T14:19:31;19.10;;;11.77;;
61038;SDS011;46919;45.816;3.104;2024-01-10T14:21:56;25.85;;;12.90;;
61038;SDS011;46919;45.816;3.104;2024-01-10T14:24:22;21.75;;;12.45;;
61038;SDS011;46919;45.816;3.104;2024-01-10T14:26:48;23.33;;;12.43;;
61038;SDS011;46919;45.816;3.104;2024-01-10T14:29:13;21.58;;;11.82;;
61038;SDS011;46919;45.816;3.104;2024-01-10T14:31:38;18.90;;;12.45;;
61038;SDS011;46919;45.816;3.104;2024-01-10T14:34:05;24.77;;;12.57;;
61038;SDS011;46919;45.816;3.104;2024-01-10T14:36:31;21.27;;;12.57;;
61038;SDS011;46919;45.816;3.104;2024-01-10T14:38:56;28.45;;;14.23;;
61038;SDS011;46919;45.816;3.104;2024-01-10T14:41:22;25.83;;;12.75;;